sensor_id;sensor_type;location;lat;lon;timestamp;pressure;altitude;pressure_sealevel;temperature;humidity
8318;BME280;4196;48.926;8.964;2023-07-16T00:02:13;98848.44;;;18.91;100.00
8318;BME280;4196;48.926;8.964;2023-07-16T00:05:00;98820.50;;;18.67;100.00
8318;BME280;4196;48.926;8.964;2023-07-16T00:07:46;98857.72;;;18.78;100.00
8318;BME280;4196;48.926;8.964;2023-07-16T00:10:35;98847.94;;;18.58;100.00
8318;BME280;4196;48.926;8.964;2023-07-16T00:13:22;98838.91;;;18.43;100.00
8318;BME280;4196;48.926;8.964;2023-07-16T00:16:08;98875.47;;;18.71;100.00
8318;BME280;4196;48.926;8.964;2023-07-16T00:18:55;98882.59;;;18.66;100.00
8318;BME280;4196;48.926;8.964;2023-07-16T00:21:41;98885.19;;;18.68;100.00
8318;BME280;4196;48.926;8.964;2023-07-16T00:24:27;98820.72;;;18.39;100.00
8318;BME280;4196;48.926;8.964;2023-07-16T00:27:14;98838.69;;;18.49;100.00
8318;BME280;4196;48.926;8.964;2023-07-16T00:30:00;98846.94;;;18.39;100.00
8318;BME280;4196;48.926;8.964;2023-07-16T00:32:47;98889.28;;;18.51;100.00
8318;BME280;4196;48.926;8.964;2023-07-16T00:35:33;98881.66;;;18.45;100.00
8318;BME280;4196;48.926;8.964;2023-07-16T00:38:20;98885.41;;;18.38;100.00
8318;BME280;4196;48.926;8.964;2023-07-16T00:41:07;98858.66;;;18.30;100.00
8318;BME280;4196;48.926;8.964;2023-07-16T00:43:54;98882.56;;;18.44;100.00
8318;BME280;4196;48.926;8.964;2023-07-16T00:46:41;98875.81;;;18.37;100.00
8318;BME280;4196;48.926;8.964;2023-07-16T00:49:28;98870.72;;;18.34;100.00
8318;BME280;4196;48.926;8.964;2023-07-16T00:52:18;98880.41;;;18.32;100.00
8318;BME280;4196;48.926;8.964;2023-07-16T00:55:06;98827.88;;;18.12;100.00
8318;BME280;4196;48.926;8.964;2023-07-16T00:57:53;98874.47;;;18.27;100.00
8318;BME280;4196;48.926;8.964;2023-07-16T01:00:42;98898.06;;;18.27;100.00
8318;BME280;4196;48.926;8.964;2023-07-16T01:03:28;98926.09;;;18.25;100.00
8318;BME280;4196;48.926;8.964;2023-07-16T01:06:46;98903.88;;;18.12;100.00
8318;BME280;4196;48.926;8.964;2023-07-16T01:09:32;98921.97;;;18.18;100.00
8318;BME280;4196;48.926;8.964;2023-07-16T01:12:20;98913.44;;;18.13;100.00
8318;BME280;4196;48.926;8.964;2023-07-16T01:15:09;98918.03;;;18.06;100.00
8318;BME280;4196;48.926;8.964;2023-07-16T01:17:58;98924.13;;;18.06;100.00
8318;BME280;4196;48.926;8.964;2023-07-16T01:20:45;98922.53;;;18.02;100.00
8318;BME280;4196;48.926;8.964;2023-07-16T01:30:02;98928.69;;;18.01;100.00
8318;BME280;4196;48.926;8.964;2023-07-16T01:32:50;98924.94;;;17.83;100.00
8318;BME280;4196;48.926;8.964;2023-07-16T01:35:37;98947.88;;;18.02;100.00
8318;BME280;4196;48.926;8.964;2023-07-16T01:38:25;98946.81;;;17.82;100.00
8318;BME280;4196;48.926;8.964;2023-07-16T01:41:12;98950.97;;;17.88;100.00
8318;BME280;4196;48.926;8.964;2023-07-16T01:43:59;98950.97;;;17.88;100.00
8318;BME280;4196;48.926;8.964;2023-07-16T01:47:10;98944.78;;;17.91;100.00
8318;BME280;4196;48.926;8.964;2023-07-16T01:49:57;98943.91;;;17.90;100.00
8318;BME280;4196;48.926;8.964;2023-07-16T01:52:43;98897.56;;;17.66;100.00
8318;BME280;4196;48.926;8.964;2023-07-16T01:55:30;98920.09;;;17.71;100.00
8318;BME280;4196;48.926;8.964;2023-07-16T01:58:16;98951.97;;;17.84;100.00
8318;BME280;4196;48.926;8.964;2023-07-16T02:01:03;98972.06;;;17.83;100.00
8318;BME280;4196;48.926;8.964;2023-07-16T02:03:50;99000.22;;;17.77;100.00
8318;BME280;4196;48.926;8.964;2023-07-16T02:06:36;99006.44;;;17.73;100.00
8318;BME280;4196;48.926;8.964;2023-07-16T02:09:22;98991.84;;;17.66;100.00
8318;BME280;4196;48.926;8.964;2023-07-16T02:12:09;98970.97;;;17.62;100.00
8318;BME280;4196;48.926;8.964;2023-07-16T02:14:55;98945.31;;;17.47;100.00
8318;BME280;4196;48.926;8.964;2023-07-16T02:17:42;98959.09;;;17.52;100.00
8318;BME280;4196;48.926;8.964;2023-07-16T02:20:28;98968.78;;;17.50;100.00
8318;BME280;4196;48.926;8.964;2023-07-16T02:23:15;98970.56;;;17.48;100.00
8318;BME280;4196;48.926;8.964;2023-07-16T02:26:01;98965.63;;;17.39;100.00
8318;BME280;4196;48.926;8.964;2023-07-16T02:28:48;98925.44;;;17.13;100.00
8318;BME280;4196;48.926;8.964;2023-07-16T02:31:35;98952.03;;;17.28;100.00
8318;BME280;4196;48.926;8.964;2023-07-16T02:34:22;98978.63;;;17.42;100.00
8318;BME280;4196;48.926;8.964;2023-07-16T02:37:09;98987.50;;;17.38;100.00
8318;BME280;4196;48.926;8.964;2023-07-16T02:39:55;98986.59;;;17.37;100.00
8318;BME280;4196;48.926;8.964;2023-07-16T02:42:41;98999.06;;;17.31;100.00
8318;BME280;4196;48.926;8.964;2023-07-16T02:45:28;98998.22;;;17.29;100.00
8318;BME280;4196;48.926;8.964;2023-07-16T02:48:14;98982.91;;;17.17;100.00
8318;BME280;4196;48.926;8.964;2023-07-16T02:51:01;98992.22;;;17.25;100.00
8318;BME280;4196;48.926;8.964;2023-07-16T02:53:47;98986.06;;;17.28;100.00
8318;BME280;4196;48.926;8.964;2023-07-16T02:56:34;98995.72;;;17.26;100.00
8318;BME280;4196;48.926;8.964;2023-07-16T02:59:20;98988.91;;;17.20;100.00
8318;BME280;4196;48.926;8.964;2023-07-16T03:02:07;98946.09;;;16.95;100.00
8318;BME280;4196;48.926;8.964;2023-07-16T03:04:54;98982.06;;;17.16;100.00
8318;BME280;4196;48.926;8.964;2023-07-16T03:07:40;98972.63;;;17.10;100.00
8318;BME280;4196;48.926;8.964;2023-07-16T03:10:27;98970.47;;;16.95;100.00
8318;BME280;4196;48.926;8.964;2023-07-16T03:13:14;98997.25;;;17.03;100.00
8318;BME280;4196;48.926;8.964;2023-07-16T03:16:01;99002.59;;;17.00;100.00
8318;BME280;4196;48.926;8.964;2023-07-16T03:18:47;99031.25;;;17.05;100.00
8318;BME280;4196;48.926;8.964;2023-07-16T03:21:34;99014.94;;;16.95;100.00
8318;BME280;4196;48.926;8.964;2023-07-16T03:24:20;99016.19;;;16.82;100.00
8318;BME280;4196;48.926;8.964;2023-07-16T03:27:08;99013.66;;;16.79;100.00
8318;BME280;4196;48.926;8.964;2023-07-16T03:30:06;99024.78;;;16.87;100.00
8318;BME280;4196;48.926;8.964;2023-07-16T03:32:53;98975.06;;;16.56;100.00
8318;BME280;4196;48.926;8.964;2023-07-16T03:35:44;99025.66;;;16.86;100.00
8318;BME280;4196;48.926;8.964;2023-07-16T03:38:31;99017.94;;;16.81;100.00
8318;BME280;4196;48.926;8.964;2023-07-16T03:41:17;99025.03;;;16.78;100.00
8318;BME280;4196;48.926;8.964;2023-07-16T03:44:05;99029.34;;;16.79;100.00
8318;BME280;4196;48.926;8.964;2023-07-16T03:46:54;99009.75;;;16.62;100.00
8318;BME280;4196;48.926;8.964;2023-07-16T03:49:41;99043.41;;;16.75;100.00
8318;BME280;4196;48.926;8.964;2023-07-16T03:52:27;99055.63;;;16.76;100.00
8318;BME280;4196;48.926;8.964;2023-07-16T03:55:15;99059.94;;;16.77;100.00
8318;BME280;4196;48.926;8.964;2023-07-16T03:58:02;99053.34;;;16.62;100.00
8318;BME280;4196;48.926;8.964;2023-07-16T04:00:49;99062.75;;;16.67;100.00
8318;BME280;4196;48.926;8.964;2023-07-16T04:03:35;99097.50;;;16.73;100.00
8318;BME280;4196;48.926;8.964;2023-07-16T04:06:23;99071.00;;;16.52;100.00
8318;BME280;4196;48.926;8.964;2023-07-16T04:09:11;99113.31;;;16.68;100.00
8318;BME280;4196;48.926;8.964;2023-07-16T04:11:57;99113.41;;;16.63;100.00
8318;BME280;4196;48.926;8.964;2023-07-16T04:14:44;99114.03;;;16.73;100.00
8318;BME280;4196;48.926;8.964;2023-07-16T04:17:30;99100.94;;;16.75;100.00
8318;BME280;4196;48.926;8.964;2023-07-16T04:20:17;99091.44;;;16.71;100.00
8318;BME280;4196;48.926;8.964;2023-07-16T04:23:03;99082.81;;;16.67;100.00
8318;BME280;4196;48.926;8.964;2023-07-16T04:25:54;99088.03;;;16.67;100.00
8318;BME280;4196;48.926;8.964;2023-07-16T04:28:41;99034.19;;;16.29;100.00
8318;BME280;4196;48.926;8.964;2023-07-16T04:31:28;99096.00;;;16.62;100.00
8318;BME280;4196;48.926;8.964;2023-07-16T04:34:15;99099.41;;;16.66;100.00
8318;BME280;4196;48.926;8.964;2023-07-16T04:37:02;99051.00;;;16.51;100.00
8318;BME280;4196;48.926;8.964;2023-07-16T04:39:49;99050.06;;;16.54;100.00
8318;BME280;4196;48.926;8.964;2023-07-16T04:42:36;99112.19;;;16.78;100.00
8318;BME280;4196;48.926;8.964;2023-07-16T04:45:22;99118.09;;;16.85;100.00
8318;BME280;4196;48.926;8.964;2023-07-16T04:48:09;99134.72;;;16.84;100.00
8318;BME280;4196;48.926;8.964;2023-07-16T04:50:55;99121.00;;;16.74;100.00
8318;BME280;4196;48.926;8.964;2023-07-16T04:53:41;99139.03;;;16.85;100.00
8318;BME280;4196;48.926;8.964;2023-07-16T04:56:28;99142.41;;;16.88;100.00
8318;BME280;4196;48.926;8.964;2023-07-16T04:59:14;99150.41;;;16.82;100.00
8318;BME280;4196;48.926;8.964;2023-07-16T05:02:05;99165.25;;;16.82;100.00
8318;BME280;4196;48.926;8.964;2023-07-16T05:04:53;99137.63;;;16.72;100.00
8318;BME280;4196;48.926;8.964;2023-07-16T05:07:39;99150.25;;;16.88;100.00
8318;BME280;4196;48.926;8.964;2023-07-16T05:10:27;99109.63;;;16.77;100.00
8318;BME280;4196;48.926;8.964;2023-07-16T05:13:14;99162.91;;;17.05;100.00
8318;BME280;4196;48.926;8.964;2023-07-16T05:16:01;99141.13;;;17.05;100.00
8318;BME280;4196;48.926;8.964;2023-07-16T05:18:48;99140.84;;;17.14;100.00
8318;BME280;4196;48.926;8.964;2023-07-16T05:21:34;99156.97;;;17.30;100.00
8318;BME280;4196;48.926;8.964;2023-07-16T05:24:21;99160.09;;;17.43;100.00
8318;BME280;4196;48.926;8.964;2023-07-16T05:27:07;99119.38;;;17.32;100.00
8318;BME280;4196;48.926;8.964;2023-07-16T05:29:53;99159.66;;;17.58;100.00
8318;BME280;4196;48.926;8.964;2023-07-16T05:32:40;99119.06;;;17.43;100.00
8318;BME280;4196;48.926;8.964;2023-07-16T05:35:27;99153.25;;;17.68;100.00
8318;BME280;4196;48.926;8.964;2023-07-16T05:38:13;99146.56;;;17.58;100.00
8318;BME280;4196;48.926;8.964;2023-07-16T05:41:04;99157.44;;;17.74;100.00
8318;BME280;4196;48.926;8.964;2023-07-16T05:43:51;99162.53;;;17.80;100.00
8318;BME280;4196;48.926;8.964;2023-07-16T05:46:37;99139.09;;;17.75;100.00
8318;BME280;4196;48.926;8.964;2023-07-16T05:49:25;99186.00;;;18.39;100.00
8318;BME280;4196;48.926;8.964;2023-07-16T05:52:12;99188.31;;;19.01;100.00
8318;BME280;4196;48.926;8.964;2023-07-16T05:54:59;99186.34;;;19.31;100.00
8318;BME280;4196;48.926;8.964;2023-07-16T05:57:45;99191.78;;;19.27;100.00
8318;BME280;4196;48.926;8.964;2023-07-16T06:00:32;99194.50;;;19.24;100.00
8318;BME280;4196;48.926;8.964;2023-07-16T06:03:19;99145.25;;;18.82;100.00
8318;BME280;4196;48.926;8.964;2023-07-16T06:06:08;99185.88;;;18.95;100.00
8318;BME280;4196;48.926;8.964;2023-07-16T06:08:55;99160.75;;;18.88;100.00
8318;BME280;4196;48.926;8.964;2023-07-16T06:11:41;99180.47;;;19.00;100.00
8318;BME280;4196;48.926;8.964;2023-07-16T06:14:27;99193.59;;;19.00;100.00
8318;BME280;4196;48.926;8.964;2023-07-16T06:17:14;99176.50;;;18.88;100.00
8318;BME280;4196;48.926;8.964;2023-07-16T06:20:02;99189.72;;;18.85;100.00
8318;BME280;4196;48.926;8.964;2023-07-16T06:22:49;99180.97;;;18.86;100.00
8318;BME280;4196;48.926;8.964;2023-07-16T06:25:36;99199.00;;;18.95;100.00
8318;BME280;4196;48.926;8.964;2023-07-16T06:28:22;99183.75;;;18.81;100.00
8318;BME280;4196;48.926;8.964;2023-07-16T06:31:09;99191.06;;;18.72;100.00
8318;BME280;4196;48.926;8.964;2023-07-16T06:33:56;99209.34;;;18.75;100.00
8318;BME280;4196;48.926;8.964;2023-07-16T06:36:42;99199.78;;;18.72;100.00
8318;BME280;4196;48.926;8.964;2023-07-16T06:39:30;99155.88;;;18.51;100.00
8318;BME280;4196;48.926;8.964;2023-07-16T06:42:16;99193.53;;;18.76;100.00
8318;BME280;4196;48.926;8.964;2023-07-16T06:45:03;99207.09;;;18.89;100.00
8318;BME280;4196;48.926;8.964;2023-07-16T06:47:49;99183.28;;;18.69;100.00
8318;BME280;4196;48.926;8.964;2023-07-16T06:50:36;99170.16;;;18.69;100.00
8318;BME280;4196;48.926;8.964;2023-07-16T06:53:22;99206.72;;;19.00;100.00
8318;BME280;4196;48.926;8.964;2023-07-16T06:56:10;99198.16;;;19.20;99.01
8318;BME280;4196;48.926;8.964;2023-07-16T06:58:56;99198.41;;;19.37;99.94
8318;BME280;4196;48.926;8.964;2023-07-16T07:01:43;99201.22;;;19.56;94.94
8318;BME280;4196;48.926;8.964;2023-07-16T07:04:29;99207.47;;;19.77;100.00
8318;BME280;4196;48.926;8.964;2023-07-16T07:07:17;99210.63;;;20.09;95.23
8318;BME280;4196;48.926;8.964;2023-07-16T07:10:03;99174.88;;;20.05;87.17
8318;BME280;4196;48.926;8.964;2023-07-16T07:12:50;99206.75;;;20.41;92.32
8318;BME280;4196;48.926;8.964;2023-07-16T07:15:37;99183.84;;;20.43;83.27
8318;BME280;4196;48.926;8.964;2023-07-16T07:18:23;99188.38;;;20.39;85.17
8318;BME280;4196;48.926;8.964;2023-07-16T07:21:10;99202.78;;;20.53;89.20
8318;BME280;4196;48.926;8.964;2023-07-16T07:23:56;99192.53;;;20.67;81.53
8318;BME280;4196;48.926;8.964;2023-07-16T07:26:43;99207.75;;;20.81;87.87
8318;BME280;4196;48.926;8.964;2023-07-16T07:29:30;99208.50;;;20.84;80.59
8318;BME280;4196;48.926;8.964;2023-07-16T07:32:16;99206.09;;;20.78;86.71
8318;BME280;4196;48.926;8.964;2023-07-16T07:35:03;99200.72;;;20.81;77.43
8318;BME280;4196;48.926;8.964;2023-07-16T07:37:49;99210.78;;;20.92;75.36
8318;BME280;4196;48.926;8.964;2023-07-16T07:40:36;99222.09;;;20.94;75.78
8318;BME280;4196;48.926;8.964;2023-07-16T07:43:22;99198.88;;;20.83;81.04
8318;BME280;4196;48.926;8.964;2023-07-16T07:46:08;99216.63;;;20.98;78.07
8318;BME280;4196;48.926;8.964;2023-07-16T07:48:56;99223.00;;;21.13;78.20
8318;BME280;4196;48.926;8.964;2023-07-16T07:51:43;99214.38;;;21.10;75.94
8318;BME280;4196;48.926;8.964;2023-07-16T07:54:31;99222.97;;;21.15;80.54
8318;BME280;4196;48.926;8.964;2023-07-16T07:57:19;99194.53;;;21.03;83.96
8318;BME280;4196;48.926;8.964;2023-07-16T08:00:07;99232.59;;;21.36;76.03
8318;BME280;4196;48.926;8.964;2023-07-16T08:02:57;99240.41;;;21.58;71.65
8318;BME280;4196;48.926;8.964;2023-07-16T08:05:48;99227.97;;;21.62;72.66
8318;BME280;4196;48.926;8.964;2023-07-16T08:08:34;99158.16;;;21.31;68.38
8318;BME280;4196;48.926;8.964;2023-07-16T08:11:21;99220.19;;;21.97;70.98
8318;BME280;4196;48.926;8.964;2023-07-16T08:14:07;99221.34;;;22.10;65.70
8318;BME280;4196;48.926;8.964;2023-07-16T08:16:54;99213.09;;;21.99;67.65
8318;BME280;4196;48.926;8.964;2023-07-16T08:19:40;99203.41;;;21.80;68.18
8318;BME280;4196;48.926;8.964;2023-07-16T08:22:27;99218.31;;;21.61;68.39
8318;BME280;4196;48.926;8.964;2023-07-16T08:25:13;99227.66;;;21.68;69.76
8318;BME280;4196;48.926;8.964;2023-07-16T08:28:02;99197.53;;;21.55;68.60
8318;BME280;4196;48.926;8.964;2023-07-16T08:30:48;99207.06;;;21.57;66.64
8318;BME280;4196;48.926;8.964;2023-07-16T08:33:35;99171.88;;;21.39;69.88
8318;BME280;4196;48.926;8.964;2023-07-16T08:36:22;99191.69;;;21.67;64.06
8318;BME280;4196;48.926;8.964;2023-07-16T08:39:08;99177.31;;;21.55;66.58
8318;BME280;4196;48.926;8.964;2023-07-16T08:41:55;99193.03;;;21.57;63.16
8318;BME280;4196;48.926;8.964;2023-07-16T08:44:41;99203.34;;;21.61;66.22
8318;BME280;4196;48.926;8.964;2023-07-16T08:47:27;99176.59;;;21.31;64.80
8318;BME280;4196;48.926;8.964;2023-07-16T08:50:14;99202.28;;;21.26;68.06
8318;BME280;4196;48.926;8.964;2023-07-16T08:53:04;99221.28;;;21.34;67.58
8318;BME280;4196;48.926;8.964;2023-07-16T08:55:51;99223.88;;;21.55;66.66
8318;BME280;4196;48.926;8.964;2023-07-16T08:58:43;99229.19;;;21.74;63.16
8318;BME280;4196;48.926;8.964;2023-07-16T09:01:31;99225.91;;;21.87;65.45
8318;BME280;4196;48.926;8.964;2023-07-16T09:04:18;99193.13;;;21.74;63.96
8318;BME280;4196;48.926;8.964;2023-07-16T09:07:05;99195.63;;;21.77;63.69
8318;BME280;4196;48.926;8.964;2023-07-16T09:09:56;99205.09;;;22.00;66.11
8318;BME280;4196;48.926;8.964;2023-07-16T09:12:46;99236.44;;;22.44;65.86
8318;BME280;4196;48.926;8.964;2023-07-16T09:15:33;99212.41;;;22.67;63.16
8318;BME280;4196;48.926;8.964;2023-07-16T09:18:26;99222.47;;;22.96;65.67
8318;BME280;4196;48.926;8.964;2023-07-16T09:21:13;99179.28;;;22.79;59.70
8318;BME280;4196;48.926;8.964;2023-07-16T09:24:00;99203.06;;;22.97;60.77
8318;BME280;4196;48.926;8.964;2023-07-16T09:26:54;99234.59;;;23.17;59.38
8318;BME280;4196;48.926;8.964;2023-07-16T09:29:44;99225.63;;;23.20;58.57
8318;BME280;4196;48.926;8.964;2023-07-16T09:32:34;99238.94;;;23.18;59.78
8318;BME280;4196;48.926;8.964;2023-07-16T09:35:21;99229.16;;;23.03;59.29
8318;BME280;4196;48.926;8.964;2023-07-16T09:38:08;99203.66;;;22.84;55.26
8318;BME280;4196;48.926;8.964;2023-07-16T09:40:56;99180.09;;;22.45;56.04
8318;BME280;4196;48.926;8.964;2023-07-16T09:43:43;99194.13;;;22.28;59.12
8318;BME280;4196;48.926;8.964;2023-07-16T09:46:30;99189.56;;;22.13;62.53
8318;BME280;4196;48.926;8.964;2023-07-16T09:49:17;99218.91;;;22.43;62.67
8318;BME280;4196;48.926;8.964;2023-07-16T09:52:04;99227.88;;;22.58;58.58
8318;BME280;4196;48.926;8.964;2023-07-16T09:54:53;99198.34;;;22.50;57.86
8318;BME280;4196;48.926;8.964;2023-07-16T09:57:42;99227.25;;;22.70;61.08
8318;BME280;4196;48.926;8.964;2023-07-16T10:00:30;99196.66;;;22.66;57.74
8318;BME280;4196;48.926;8.964;2023-07-16T10:03:18;99215.84;;;22.70;58.50
8318;BME280;4196;48.926;8.964;2023-07-16T10:06:06;99193.38;;;22.43;59.87
8318;BME280;4196;48.926;8.964;2023-07-16T10:08:52;99224.47;;;22.90;62.46
8318;BME280;4196;48.926;8.964;2023-07-16T10:11:40;99217.91;;;23.17;57.15
8318;BME280;4196;48.926;8.964;2023-07-16T10:14:28;99202.44;;;23.09;55.19
8318;BME280;4196;48.926;8.964;2023-07-16T10:17:22;99204.19;;;22.91;58.91
8318;BME280;4196;48.926;8.964;2023-07-16T10:20:09;99169.19;;;23.05;56.12
8318;BME280;4196;48.926;8.964;2023-07-16T10:23:18;99218.78;;;23.50;58.45
8318;BME280;4196;48.926;8.964;2023-07-16T10:26:06;99190.25;;;23.39;60.27
8318;BME280;4196;48.926;8.964;2023-07-16T10:28:53;99185.91;;;23.38;58.05
8318;BME280;4196;48.926;8.964;2023-07-16T10:31:39;99171.81;;;23.38;56.92
8318;BME280;4196;48.926;8.964;2023-07-16T10:34:25;99171.31;;;23.31;55.96
8318;BME280;4196;48.926;8.964;2023-07-16T10:37:12;99190.25;;;23.39;57.60
8318;BME280;4196;48.926;8.964;2023-07-16T10:40:00;99199.13;;;23.38;55.72
8318;BME280;4196;48.926;8.964;2023-07-16T10:42:46;99212.06;;;23.27;56.09
8318;BME280;4196;48.926;8.964;2023-07-16T10:45:33;99218.66;;;23.19;54.97
8318;BME280;4196;48.926;8.964;2023-07-16T10:48:24;99178.44;;;23.13;54.04
8318;BME280;4196;48.926;8.964;2023-07-16T10:51:14;99175.53;;;23.18;53.49
8318;BME280;4196;48.926;8.964;2023-07-16T10:54:02;99138.44;;;22.69;58.03
8318;BME280;4196;48.926;8.964;2023-07-16T10:56:51;99197.00;;;22.95;57.60
8318;BME280;4196;48.926;8.964;2023-07-16T10:59:39;99174.22;;;22.75;55.40
8318;BME280;4196;48.926;8.964;2023-07-16T11:02:26;99173.53;;;22.88;56.03
8318;BME280;4196;48.926;8.964;2023-07-16T11:05:14;99169.19;;;22.87;54.78
8318;BME280;4196;48.926;8.964;2023-07-16T11:08:01;99191.00;;;22.91;53.05
8318;BME280;4196;48.926;8.964;2023-07-16T11:10:56;99184.88;;;22.73;56.56
8318;BME280;4196;48.926;8.964;2023-07-16T11:13:43;99184.69;;;22.59;59.28
8318;BME280;4196;48.926;8.964;2023-07-16T11:16:35;99185.50;;;22.61;59.59
8318;BME280;4196;48.926;8.964;2023-07-16T11:19:21;99188.59;;;22.69;59.07
8318;BME280;4196;48.926;8.964;2023-07-16T11:22:09;99177.69;;;22.75;54.79
8318;BME280;4196;48.926;8.964;2023-07-16T11:24:56;99179.66;;;22.89;54.28
8318;BME280;4196;48.926;8.964;2023-07-16T11:27:42;99175.94;;;22.93;56.91
8318;BME280;4196;48.926;8.964;2023-07-16T11:30:29;99177.50;;;22.97;58.42
8318;BME280;4196;48.926;8.964;2023-07-16T11:33:15;99173.25;;;22.95;55.66
8318;BME280;4196;48.926;8.964;2023-07-16T11:36:02;99157.91;;;23.01;54.21
8318;BME280;4196;48.926;8.964;2023-07-16T11:38:49;99179.44;;;23.11;51.58
8318;BME280;4196;48.926;8.964;2023-07-16T11:41:37;99167.47;;;23.04;55.19
8318;BME280;4196;48.926;8.964;2023-07-16T11:44:23;99175.00;;;23.11;53.92
8318;BME280;4196;48.926;8.964;2023-07-16T11:47:10;99168.59;;;23.33;53.15
8318;BME280;4196;48.926;8.964;2023-07-16T11:49:57;99148.13;;;23.36;51.71
8318;BME280;4196;48.926;8.964;2023-07-16T11:52:55;99165.69;;;23.37;56.13
8318;BME280;4196;48.926;8.964;2023-07-16T11:55:42;99156.63;;;23.59;52.99
8318;BME280;4196;48.926;8.964;2023-07-16T11:58:29;99169.28;;;23.70;54.08
8318;BME280;4196;48.926;8.964;2023-07-16T12:01:16;99163.25;;;23.83;51.46
8318;BME280;4196;48.926;8.964;2023-07-16T12:04:02;99126.31;;;23.49;51.30
8318;BME280;4196;48.926;8.964;2023-07-16T12:06:49;99111.56;;;23.45;53.56
8318;BME280;4196;48.926;8.964;2023-07-16T12:09:36;99150.78;;;23.85;50.83
8318;BME280;4196;48.926;8.964;2023-07-16T12:12:22;99107.16;;;23.61;52.08
8318;BME280;4196;48.926;8.964;2023-07-16T12:15:09;99134.66;;;23.90;54.86
8318;BME280;4196;48.926;8.964;2023-07-16T12:17:55;99131.84;;;24.09;52.87
8318;BME280;4196;48.926;8.964;2023-07-16T12:20:42;99115.59;;;24.15;52.76
8318;BME280;4196;48.926;8.964;2023-07-16T12:23:28;99115.72;;;24.44;51.99
8318;BME280;4196;48.926;8.964;2023-07-16T12:26:15;99128.94;;;24.74;53.90
8318;BME280;4196;48.926;8.964;2023-07-16T12:29:02;99121.50;;;24.95;51.33
8318;BME280;4196;48.926;8.964;2023-07-16T12:31:49;99087.72;;;24.84;50.91
8318;BME280;4196;48.926;8.964;2023-07-16T12:34:36;99121.19;;;25.15;50.22
8318;BME280;4196;48.926;8.964;2023-07-16T12:37:23;99117.72;;;24.99;51.88
8318;BME280;4196;48.926;8.964;2023-07-16T12:40:09;99070.38;;;24.50;52.04
8318;BME280;4196;48.926;8.964;2023-07-16T12:42:56;99110.69;;;24.69;49.46
8318;BME280;4196;48.926;8.964;2023-07-16T12:45:42;99074.41;;;24.41;48.15
8318;BME280;4196;48.926;8.964;2023-07-16T12:48:30;99078.06;;;24.39;50.56
8318;BME280;4196;48.926;8.964;2023-07-16T12:51:16;99099.31;;;24.53;50.83
8318;BME280;4196;48.926;8.964;2023-07-16T12:54:03;99072.97;;;24.35;49.02
8318;BME280;4196;48.926;8.964;2023-07-16T12:56:49;99096.00;;;24.33;50.25
8318;BME280;4196;48.926;8.964;2023-07-16T12:59:36;99064.34;;;24.32;52.32
8318;BME280;4196;48.926;8.964;2023-07-16T13:02:22;99082.69;;;24.65;52.11
8318;BME280;4196;48.926;8.964;2023-07-16T13:05:09;99099.00;;;24.88;48.34
8318;BME280;4196;48.926;8.964;2023-07-16T13:07:55;99091.91;;;24.88;46.78
8318;BME280;4196;48.926;8.964;2023-07-16T13:10:42;99110.81;;;24.82;46.92
8318;BME280;4196;48.926;8.964;2023-07-16T13:13:28;99077.72;;;24.75;50.69
8318;BME280;4196;48.926;8.964;2023-07-16T13:16:15;99067.19;;;24.88;50.79
8318;BME280;4196;48.926;8.964;2023-07-16T13:19:02;99061.34;;;24.97;48.99
8318;BME280;4196;48.926;8.964;2023-07-16T13:21:48;99079.72;;;25.14;48.19
8318;BME280;4196;48.926;8.964;2023-07-16T13:24:34;99071.75;;;25.28;47.47
8318;BME280;4196;48.926;8.964;2023-07-16T13:27:23;99101.69;;;25.45;46.67
8318;BME280;4196;48.926;8.964;2023-07-16T13:30:10;99053.03;;;25.17;47.56
8318;BME280;4196;48.926;8.964;2023-07-16T13:32:57;99092.88;;;25.44;45.76
8318;BME280;4196;48.926;8.964;2023-07-16T13:35:43;99097.03;;;25.05;46.67
8318;BME280;4196;48.926;8.964;2023-07-16T13:38:30;99098.47;;;25.11;49.69
8318;BME280;4196;48.926;8.964;2023-07-16T13:41:17;99056.97;;;24.81;45.88
8318;BME280;4196;48.926;8.964;2023-07-16T13:44:04;99087.63;;;25.00;50.10
8318;BME280;4196;48.926;8.964;2023-07-16T13:46:50;99065.22;;;25.05;46.14
8318;BME280;4196;48.926;8.964;2023-07-16T13:49:37;99076.16;;;25.15;46.98
8318;BME280;4196;48.926;8.964;2023-07-16T13:52:23;99048.50;;;25.19;45.57
8318;BME280;4196;48.926;8.964;2023-07-16T13:55:10;99102.22;;;25.50;47.86
8318;BME280;4196;48.926;8.964;2023-07-16T13:57:57;99104.88;;;25.78;45.41
8318;BME280;4196;48.926;8.964;2023-07-16T14:00:43;99106.38;;;25.68;44.80
8318;BME280;4196;48.926;8.964;2023-07-16T14:03:30;99107.72;;;25.18;47.21
8318;BME280;4196;48.926;8.964;2023-07-16T14:06:17;99060.22;;;24.87;46.18
8318;BME280;4196;48.926;8.964;2023-07-16T14:09:04;99104.47;;;24.85;46.36
8318;BME280;4196;48.926;8.964;2023-07-16T14:11:51;99087.31;;;24.62;48.83
8318;BME280;4196;48.926;8.964;2023-07-16T14:14:37;99092.97;;;24.55;48.45
8318;BME280;4196;48.926;8.964;2023-07-16T14:17:24;99088.59;;;24.40;49.18
8318;BME280;4196;48.926;8.964;2023-07-16T14:20:11;99065.75;;;24.23;49.54
8318;BME280;4196;48.926;8.964;2023-07-16T14:22:57;99100.06;;;24.55;51.04
8318;BME280;4196;48.926;8.964;2023-07-16T14:25:44;99056.13;;;24.81;48.41
8318;BME280;4196;48.926;8.964;2023-07-16T14:28:30;99094.22;;;25.37;45.63
8318;BME280;4196;48.926;8.964;2023-07-16T14:31:18;99103.56;;;25.43;47.38
8318;BME280;4196;48.926;8.964;2023-07-16T14:34:05;99082.53;;;25.40;45.27
8318;BME280;4196;48.926;8.964;2023-07-16T14:36:51;99106.31;;;25.56;47.00
8318;BME280;4196;48.926;8.964;2023-07-16T14:39:37;99097.63;;;25.66;44.87
8318;BME280;4196;48.926;8.964;2023-07-16T14:42:23;99104.59;;;25.54;45.52
8318;BME280;4196;48.926;8.964;2023-07-16T14:45:10;99102.59;;;25.44;45.24
8318;BME280;4196;48.926;8.964;2023-07-16T14:47:57;99118.44;;;25.45;43.75
8318;BME280;4196;48.926;8.964;2023-07-16T14:50:43;99089.19;;;25.33;43.64
8318;BME280;4196;48.926;8.964;2023-07-16T14:53:29;99097.53;;;25.26;45.55
8318;BME280;4196;48.926;8.964;2023-07-16T14:56:16;99093.06;;;25.13;44.56
8318;BME280;4196;48.926;8.964;2023-07-16T14:59:03;99119.28;;;25.17;44.65
8318;BME280;4196;48.926;8.964;2023-07-16T15:01:49;99100.91;;;25.14;42.88
8318;BME280;4196;48.926;8.964;2023-07-16T15:04:36;99086.53;;;24.90;45.78
8318;BME280;4196;48.926;8.964;2023-07-16T15:07:24;99097.13;;;24.90;46.14
8318;BME280;4196;48.926;8.964;2023-07-16T15:10:11;99094.25;;;25.07;44.18
8318;BME280;4196;48.926;8.964;2023-07-16T15:12:58;99042.31;;;24.76;44.26